Time;durP1;ratioP1;P1;durP2;ratioP2;P2;SDS_P1;SDS_P2;PMS_P1;PMS_P2;Temp;Humidity;BMP_temperature;BMP_pressure;BME280_temperature;BME280_humidity;BME280_pressure;Samples;Min_cycle;Max_cycle;Signal;HPM_P1;HPM_P2
2021/04/04 04:12:09;;;;;;;1.20;1.20;;;2.20;99.90;;;;;;5145179;23;20237;-76
2021/04/04 04:14:36;;;;;;;1.50;1.50;;;2.30;99.90;;;;;;4955459;29;20206;-76
2021/04/04 04:17:05;;;;;;;1.40;1.40;;;2.20;99.90;;;;;;4954945;29;20208;-75
2021/04/04 04:19:32;;;;;;;1.27;1.27;;;2.10;99.90;;;;;;4954997;28;20662;-78
2021/04/04 04:21:59;;;;;;;1.20;1.20;;;2.00;99.90;;;;;;4940331;28;20426;-76
2021/04/04 04:24:26;;;;;;;1.67;1.67;;;2.10;99.90;;;;;;4935973;29;20248;-75
2021/04/04 04:26:54;;;;;;;1.50;1.50;;;2.30;99.90;;;;;;4936143;29;20306;-75
2021/04/04 04:29:22;;;;;;;1.30;1.30;;;2.40;99.90;;;;;;4935799;29;20335;-75
2021/04/04 04:31:57;;;;;;;1.60;1.60;;;2.50;99.90;;;;;;4935626;29;20289;-74
2021/04/04 04:34:25;;;;;;;1.40;1.40;;;2.50;99.90;;;;;;4935489;29;20205;-74
2021/04/04 04:36:53;;;;;;;1.30;1.30;;;2.50;99.90;;;;;;4935411;29;20735;-74
2021/04/04 04:39:21;;;;;;;1.40;1.40;;;2.50;99.90;;;;;;4935645;29;20209;-75
2021/04/04 04:41:50;;;;;;;1.40;1.40;;;2.50;99.90;;;;;;4935497;29;20229;-75
2021/04/04 04:44:21;;;;;;;1.30;1.30;;;2.20;99.90;;;;;;4935518;29;20632;-75
2021/04/04 04:46:50;;;;;;;1.37;1.37;;;2.00;99.90;;;;;;4935127;29;20602;-75
2021/04/04 04:49:17;;;;;;;1.70;1.70;;;1.90;99.90;;;;;;4935541;29;20280;-75
2021/04/04 04:51:46;;;;;;;1.10;1.10;;;1.90;99.90;;;;;;4935384;29;20639;-76
2021/04/04 04:54:13;;;;;;;1.40;1.40;;;2.00;99.90;;;;;;4935438;29;20263;-75
2021/04/04 04:56:40;;;;;;;1.30;1.30;;;2.10;99.90;;;;;;4935360;29;20221;-77
2021/04/04 04:59:08;;;;;;;1.60;1.60;;;2.30;99.90;;;;;;4935280;29;20206;-76
2021/04/04 05:01:40;;;;;;;1.33;1.33;;;2.30;99.90;;;;;;4935216;29;20233;-75
2021/04/04 05:04:08;;;;;;;1.37;1.37;;;2.40;99.90;;;;;;4935398;29;20344;-76
2021/04/04 05:06:36;;;;;;;1.60;1.60;;;2.50;99.90;;;;;;4934744;29;20699;-76
2021/04/04 05:09:05;;;;;;;1.40;1.40;;;2.70;99.90;;;;;;4935156;29;20210;-75
2021/04/04 05:11:34;;;;;;;1.33;1.33;;;2.80;99.90;;;;;;4935010;29;20238;-76
2021/04/04 05:14:02;;;;;;;1.60;1.60;;;2.80;99.90;;;;;;4935022;29;20214;-75
2021/04/04 05:16:30;;;;;;;1.30;1.30;;;3.00;99.90;;;;;;4934695;29;20206;-75
2021/04/04 05:18:57;;;;;;;1.47;1.47;;;3.00;99.90;;;;;;4935103;29;20281;-75
2021/04/04 05:21:26;;;;;;;1.37;1.37;;;3.10;99.90;;;;;;4934947;29;20639;-75
2021/04/04 05:23:57;;;;;;;1.40;1.40;;;3.10;99.90;;;;;;4934832;29;20245;-75
2021/04/04 05:26:28;;;;;;;1.40;1.40;;;3.20;99.90;;;;;;4934576;29;20229;-75
2021/04/04 05:28:55;;;;;;;1.40;1.40;;;3.30;99.90;;;;;;4934944;29;20205;-75
2021/04/04 05:31:22;;;;;;;1.30;1.30;;;3.30;99.90;;;;;;4934779;29;20782;-75
2021/04/04 05:33:49;;;;;;;1.30;1.30;;;3.30;99.90;;;;;;4934472;29;20285;-75
2021/04/04 05:36:16;;;;;;;1.10;1.10;;;3.30;99.90;;;;;;4934374;29;20549;-75
2021/04/04 05:38:44;;;;;;;1.17;1.17;;;3.40;99.90;;;;;;4934878;29;20202;-75
2021/04/04 05:41:12;;;;;;;1.30;1.30;;;3.40;99.90;;;;;;4934931;29;20229;-76
2021/04/04 05:43:42;;;;;;;1.33;1.33;;;3.50;99.90;;;;;;4935111;29;20289;-75
2021/04/04 05:46:17;;;;;;;1.30;1.30;;;3.50;99.90;;;;;;4934527;29;20572;-76
2021/04/04 05:48:57;;;;;;;1.43;1.43;;;3.50;99.90;;;;;;4935410;29;20268;-75
2021/04/04 05:51:34;;;;;;;1.53;1.53;;;3.70;99.90;;;;;;4934568;29;20277;-75
2021/04/04 05:54:17;;;;;;;1.50;1.50;;;3.80;99.90;;;;;;4934707;29;20209;-76
2021/04/04 05:56:49;;;;;;;1.40;1.40;;;3.90;99.90;;;;;;4934457;29;20257;-75
2021/04/04 05:59:23;;;;;;;1.30;1.30;;;3.90;99.90;;;;;;4934654;29;20221;-75
2021/04/04 06:02:38;;;;;;;1.40;1.40;;;4.00;99.90;;;;;;4934258;29;20290;-76
2021/04/04 06:05:22;;;;;;;1.30;1.30;;;4.00;99.90;;;;;;4933320;29;20297;-75
2021/04/04 06:08:17;;;;;;;1.40;1.40;;;4.00;99.90;;;;;;4930387;29;20213;-76
2021/04/04 06:10:53;;;;;;;1.63;1.63;;;4.00;99.90;;;;;;4933640;29;20230;-75
2021/04/04 06:13:27;;;;;;;1.23;1.23;;;4.20;99.90;;;;;;4933513;29;20202;-75
2021/04/04 06:16:06;;;;;;;1.20;1.20;;;4.10;99.90;;;;;;4933464;29;20261;-75
2021/04/04 06:18:45;;;;;;;1.40;1.40;;;4.20;99.90;;;;;;4933661;29;20206;-75
2021/04/04 06:21:21;;;;;;;1.40;1.40;;;4.30;99.90;;;;;;4934390;29;20229;-75
2021/04/04 06:23:55;;;;;;;1.30;1.30;;;4.50;99.90;;;;;;4933998;29;20209;-76
2021/04/04 06:26:35;;;;;;;1.30;1.30;;;4.60;99.90;;;;;;4933957;29;20225;-75
2021/04/04 06:29:11;;;;;;;1.17;1.17;;;4.60;99.90;;;;;;4935199;29;20210;-75
2021/04/04 06:31:47;;;;;;;1.37;1.37;;;4.80;99.90;;;;;;4936399;29;20746;-77
2021/04/04 06:34:18;;;;;;;1.30;1.30;;;4.90;99.90;;;;;;4935951;29;20225;-77
2021/04/04 06:36:56;;;;;;;1.10;1.10;;;4.90;99.90;;;;;;4935653;29;20206;-75
2021/04/04 06:39:48;;;;;;;1.30;1.30;;;4.80;99.90;;;;;;4934995;29;20216;-77
2021/04/04 06:42:22;;;;;;;1.20;1.20;;;4.90;99.90;;;;;;4935226;29;20238;-76
2021/04/04 06:45:00;;;;;;;1.20;1.20;;;5.00;99.90;;;;;;4936755;29;20207;-77
2021/04/04 06:47:35;;;;;;;1.10;1.10;;;5.10;99.90;;;;;;4938480;29;20229;-76
2021/04/04 06:50:09;;;;;;;1.00;1.00;;;5.10;99.90;;;;;;4939040;29;20261;-77
2021/04/04 06:52:50;;;;;;;1.00;1.00;;;5.20;99.90;;;;;;4938945;29;20202;-77
2021/04/04 06:55:26;;;;;;;1.20;1.20;;;5.30;99.90;;;;;;4941994;29;20223;-77
2021/04/04 06:58:21;;;;;;;1.20;1.20;;;5.30;99.90;;;;;;4942162;29;20201;-77
2021/04/04 07:01:00;;;;;;;1.20;1.20;;;5.40;99.90;;;;;;4942389;29;20234;-76
2021/04/04 07:03:35;;;;;;;1.00;1.00;;;5.50;99.90;;;;;;4943538;29;20268;-76
2021/04/04 07:06:09;;;;;;;1.20;1.20;;;5.60;99.90;;;;;;4941861;29;20254;-76
2021/04/04 07:09:01;;;;;;;1.20;1.20;;;5.60;99.90;;;;;;4942705;29;20269;-76
2021/04/04 07:11:34;;;;;;;1.17;1.17;;;5.70;99.90;;;;;;4939618;29;20262;-76
2021/04/04 07:14:31;;;;;;;1.20;1.20;;;5.80;99.90;;;;;;4938653;29;20206;-76
2021/04/04 07:17:16;;;;;;;1.20;1.20;;;5.80;99.90;;;;;;4938269;29;20720;-77
2021/04/04 07:20:18;;;;;;;1.10;1.10;;;5.80;99.90;;;;;;4938761;29;20740;-77
2021/04/04 07:23:21;;;;;;;1.20;1.20;;;5.90;99.90;;;;;;4938513;29;20272;-77
2021/04/04 07:25:55;;;;;;;1.13;1.13;;;6.00;99.90;;;;;;4938440;29;20230;-75
2021/04/04 07:28:39;;;;;;;1.20;1.20;;;6.10;99.90;;;;;;4937777;29;20202;-77
2021/04/04 07:31:10;;;;;;;1.10;1.10;;;6.30;99.90;;;;;;4938053;29;20280;-77
2021/04/04 07:33:43;;;;;;;1.20;1.20;;;6.40;99.90;;;;;;4937829;29;20257;-76
2021/04/04 07:36:15;;;;;;;1.27;1.27;;;6.50;99.90;;;;;;4937438;29;20210;-77
2021/04/04 07:38:48;;;;;;;1.00;1.00;;;6.40;99.90;;;;;;4937281;29;20206;-76
2021/04/04 07:41:21;;;;;;;1.00;1.00;;;6.40;99.90;;;;;;4937914;29;20313;-76
2021/04/04 07:43:53;;;;;;;1.10;1.10;;;6.40;99.90;;;;;;4937373;29;20206;-76
2021/04/04 07:46:23;;;;;;;1.00;1.00;;;6.60;99.90;;;;;;4937295;29;20214;-77
2021/04/04 07:49:01;;;;;;;1.30;1.30;;;6.70;99.90;;;;;;4937373;29;20210;-77
2021/04/04 07:51:31;;;;;;;1.00;1.00;;;6.80;99.90;;;;;;4937103;29;20258;-76
2021/04/04 07:54:02;;;;;;;1.20;1.20;;;6.80;99.90;;;;;;4937160;29;20302;-76
2021/04/04 07:56:36;;;;;;;1.27;1.27;;;6.80;99.90;;;;;;4936693;29;20206;-77
2021/04/04 07:59:10;;;;;;;1.17;1.17;;;6.80;99.80;;;;;;4937221;29;20250;-76
2021/04/04 08:01:41;;;;;;;1.30;1.30;;;6.80;99.60;;;;;;4936710;29;20226;-75
2021/04/04 08:04:13;;;;;;;1.00;1.00;;;7.00;99.30;;;;;;4936942;29;20269;-77
2021/04/04 08:06:46;;;;;;;1.00;1.00;;;7.20;99.70;;;;;;4937542;29;20273;-77
2021/04/04 08:09:20;;;;;;;0.90;0.90;;;7.40;98.70;;;;;;4936748;29;20253;-77
2021/04/04 08:11:54;;;;;;;1.00;1.00;;;7.40;97.70;;;;;;4936875;29;20265;-76
2021/04/04 08:14:31;;;;;;;1.00;1.00;;;7.60;97.50;;;;;;4937328;29;20257;-77
2021/04/04 08:16:59;;;;;;;1.03;1.03;;;7.70;97.40;;;;;;4936820;29;20238;-77
2021/04/04 08:19:27;;;;;;;1.10;1.10;;;7.70;96.70;;;;;;4935824;29;20210;-76
2021/04/04 08:22:02;;;;;;;0.90;0.90;;;7.80;95.70;;;;;;4936309;29;20230;-76
2021/04/04 08:24:36;;;;;;;0.80;0.80;;;7.70;95.00;;;;;;4936121;29;20666;-77
2021/04/04 08:27:11;;;;;;;1.00;1.00;;;7.70;95.60;;;;;;4936465;29;20229;-78
2021/04/04 08:29:44;;;;;;;1.00;1.00;;;7.70;94.50;;;;;;4936076;29;20622;-76
2021/04/04 08:32:22;;;;;;;0.90;0.90;;;7.60;93.90;;;;;;4936332;29;20230;-76
2021/04/04 08:34:55;;;;;;;1.07;1.07;;;7.70;94.10;;;;;;4935746;29;20874;-77
2021/04/04 08:37:25;;;;;;;0.80;0.80;;;7.80;94.80;;;;;;4936371;29;20202;-75
2021/04/04 08:39:55;;;;;;;0.90;0.90;;;7.80;94.80;;;;;;4936024;29;20735;-76
2021/04/04 08:42:22;;;;;;;1.00;1.00;;;7.80;94.00;;;;;;4935853;29;20273;-76
2021/04/04 08:44:54;;;;;;;1.00;1.00;;;7.80;94.00;;;;;;4936082;29;20217;-77
2021/04/04 08:47:27;;;;;;;1.00;1.00;;;7.80;93.60;;;;;;4936648;29;20225;-76
2021/04/04 08:49:55;;;;;;;0.80;0.80;;;7.80;93.80;;;;;;4936597;29;20255;-77
2021/04/04 08:52:27;;;;;;;1.10;1.10;;;7.80;90.90;;;;;;4936212;29;20226;-76
2021/04/04 08:54:54;;;;;;;1.03;1.03;;;7.60;89.90;;;;;;4936111;29;20217;-77
2021/04/04 08:57:26;;;;;;;1.00;1.00;;;7.70;89.40;;;;;;4936687;29;20202;-76
2021/04/04 08:59:54;;;;;;;1.07;1.07;;;7.80;87.10;;;;;;4936212;29;20671;-77
2021/04/04 09:02:25;;;;;;;1.13;1.13;;;7.80;86.30;;;;;;4936481;29;20230;-77
2021/04/04 09:04:52;;;;;;;0.90;0.90;;;7.90;85.40;;;;;;4937360;29;20253;-77
2021/04/04 09:07:20;;;;;;;1.00;1.00;;;8.10;85.90;;;;;;4936442;29;20222;-75
2021/04/04 09:09:50;;;;;;;0.97;0.97;;;8.20;81.90;;;;;;4937439;29;20214;-77
2021/04/04 09:12:18;;;;;;;0.97;0.97;;;8.20;82.10;;;;;;4936963;29;20253;-75
2021/04/04 09:14:45;;;;;;;0.80;0.80;;;8.20;80.90;;;;;;4940074;29;20210;-76
2021/04/04 09:17:15;;;;;;;0.90;0.90;;;8.30;81.80;;;;;;4937776;29;20659;-77
2021/04/04 09:19:45;;;;;;;0.90;0.90;;;8.20;78.90;;;;;;4936826;29;20261;-77
2021/04/04 09:22:17;;;;;;;0.93;0.93;;;8.30;80.10;;;;;;4936692;29;20254;-77
2021/04/04 09:24:48;;;;;;;1.10;1.10;;;8.40;77.50;;;;;;4935366;29;20568;-76
2021/04/04 09:27:17;;;;;;;0.90;0.90;;;8.30;79.70;;;;;;4935322;29;20717;-76
2021/04/04 09:29:46;;;;;;;0.90;0.90;;;8.40;78.30;;;;;;4936063;29;20206;-77
2021/04/04 09:32:25;;;;;;;0.97;0.97;;;8.50;77.10;;;;;;4935567;29;20226;-76
2021/04/04 09:34:54;;;;;;;1.00;1.00;;;8.50;76.80;;;;;;4935582;29;20257;-77
2021/04/04 09:37:23;;;;;;;0.80;0.80;;;8.60;78.40;;;;;;4935242;29;20243;-77
2021/04/04 09:39:51;;;;;;;0.90;0.90;;;8.60;77.50;;;;;;4934991;29;20206;-77
2021/04/04 09:42:19;;;;;;;1.00;1.00;;;8.50;76.20;;;;;;4934813;29;20645;-77
2021/04/04 09:44:46;;;;;;;0.87;0.87;;;8.50;76.20;;;;;;4935061;29;20253;-75
2021/04/04 09:47:13;;;;;;;0.90;0.90;;;8.60;78.30;;;;;;4935450;29;20233;-77
2021/04/04 09:49:42;;;;;;;0.80;0.80;;;8.50;75.50;;;;;;4935431;29;20210;-76
2021/04/04 09:52:21;;;;;;;0.90;0.90;;;8.50;76.00;;;;;;4934988;29;20408;-77
2021/04/04 09:54:59;;;;;;;0.90;0.90;;;8.60;75.80;;;;;;4935443;29;20206;-76
2021/04/04 09:57:27;;;;;;;0.90;0.90;;;8.40;75.50;;;;;;4935108;29;20210;-76
2021/04/04 09:59:54;;;;;;;0.90;0.90;;;8.60;76.80;;;;;;4935259;29;20206;-76
2021/04/04 10:02:32;;;;;;;1.07;1.07;;;8.60;74.90;;;;;;4935060;29;20230;-76
2021/04/04 10:04:59;;;;;;;1.00;1.00;;;8.80;77.20;;;;;;4936939;29;20653;-77
2021/04/04 10:07:31;;;;;;;0.80;0.80;;;8.80;77.20;;;;;;4936304;29;20284;-75
2021/04/04 10:09:58;;;;;;;1.00;1.00;;;8.80;75.90;;;;;;4935791;29;20210;-78
2021/04/04 10:12:26;;;;;;;0.87;0.87;;;8.90;76.70;;;;;;4935911;29;20229;-77
2021/04/04 10:15:04;;;;;;;1.00;1.00;;;9.00;76.40;;;;;;4935959;29;20210;-77
2021/04/04 10:17:32;;;;;;;0.90;0.90;;;9.10;76.20;;;;;;4936088;29;20206;-76
2021/04/04 10:20:01;;;;;;;0.90;0.90;;;9.10;75.10;;;;;;4937193;29;20725;-76
2021/04/04 10:22:28;;;;;;;0.80;0.80;;;9.10;70.30;;;;;;4937616;29;20276;-77
2021/04/04 10:25:05;;;;;;;0.95;0.95;;;8.90;71.80;;;;;;4937107;29;20254;-76
2021/04/04 10:27:31;;;;;;;0.70;0.70;;;8.90;70.00;;;;;;4937594;29;20233;-74
2021/04/04 10:30:06;;;;;;;0.90;0.90;;;9.00;67.80;;;;;;4936933;29;20265;-74
2021/04/04 10:32:33;;;;;;;0.97;0.97;;;9.00;69.40;;;;;;4937104;29;20312;-74
2021/04/04 10:35:01;;;;;;;0.70;0.70;;;9.00;69.60;;;;;;4937001;29;20318;-75
2021/04/04 10:37:29;;;;;;;0.85;0.85;;;9.20;71.50;;;;;;4937600;29;20249;-75
2021/04/04 10:39:58;;;;;;;0.98;0.98;;;9.10;71.30;;;;;;4936857;29;20206;-75
2021/04/04 10:42:26;;;;;;;0.80;0.80;;;9.20;70.60;;;;;;4937017;29;20238;-76
2021/04/04 10:45:08;;;;;;;0.90;0.90;;;9.20;71.10;;;;;;4936773;29;20306;-76
2021/04/04 10:47:35;;;;;;;0.90;0.90;;;9.30;71.60;;;;;;4937000;29;20217;-76
2021/04/04 10:50:04;;;;;;;0.80;0.80;;;9.30;70.80;;;;;;4937026;29;20206;-73
2021/04/04 10:52:33;;;;;;;0.90;0.90;;;9.30;70.60;;;;;;4936740;29;20226;-73
2021/04/04 10:55:01;;;;;;;1.10;1.10;;;9.40;71.80;;;;;;4936548;29;20214;-76
2021/04/04 10:57:30;;;;;;;0.82;0.82;;;9.40;72.00;;;;;;4936717;29;20198;-73
2021/04/04 10:59:59;;;;;;;0.80;0.80;;;9.40;72.10;;;;;;4936652;29;20555;-75
2021/04/04 11:02:26;;;;;;;0.80;0.80;;;9.50;72.90;;;;;;4936757;29;20699;-76
2021/04/04 11:04:53;;;;;;;0.90;0.90;;;9.50;72.90;;;;;;4936271;29;20672;-73
2021/04/04 11:07:20;;;;;;;0.90;0.90;;;9.60;73.60;;;;;;4936521;29;20285;-76
2021/04/04 11:09:48;;;;;;;0.77;0.77;;;9.70;72.90;;;;;;4936419;29;20258;-75
2021/04/04 11:12:17;;;;;;;0.80;0.80;;;9.70;73.00;;;;;;4936216;29;20289;-76
2021/04/04 11:14:46;;;;;;;0.90;0.90;;;9.70;74.20;;;;;;4936253;29;20217;-74
2021/04/04 11:17:17;;;;;;;0.80;0.80;;;9.70;73.10;;;;;;4936414;29;20206;-76
2021/04/04 11:19:46;;;;;;;0.90;0.90;;;9.80;72.70;;;;;;4936593;29;20206;-75
2021/04/04 11:22:16;;;;;;;0.80;0.80;;;9.70;72.80;;;;;;4936231;29;20257;-75
2021/04/04 11:24:57;;;;;;;0.93;0.93;;;10.00;72.60;;;;;;4935796;29;20638;-75
2021/04/04 11:27:41;;;;;;;0.90;0.90;;;10.20;72.20;;;;;;4936031;29;20229;-75
2021/04/04 11:30:13;;;;;;;0.80;0.80;;;10.00;72.20;;;;;;4935494;29;20265;-75
2021/04/04 11:32:44;;;;;;;0.80;0.80;;;10.10;73.00;;;;;;4936236;29;20209;-73
2021/04/04 11:35:13;;;;;;;1.00;1.00;;;10.20;71.70;;;;;;4935727;29;20209;-75
2021/04/04 11:37:43;;;;;;;0.90;0.90;;;10.50;72.10;;;;;;4935925;29;20663;-75
2021/04/04 11:40:19;;;;;;;0.90;0.90;;;10.70;78.40;;;;;;4935890;29;20210;-73
2021/04/04 11:42:48;;;;;;;0.90;0.90;;;10.50;71.90;;;;;;4936209;29;20209;-74
2021/04/04 11:45:34;;;;;;;0.80;0.80;;;10.50;71.20;;;;;;4935559;29;20625;-74
2021/04/04 11:48:30;;;;;;;0.80;0.80;;;10.60;72.60;;;;;;4935807;29;20285;-73
2021/04/04 11:51:30;;;;;;;1.00;1.00;;;10.80;71.30;;;;;;4935889;29;20297;-73
2021/04/04 11:53:58;;;;;;;0.70;0.70;;;10.50;72.20;;;;;;4935750;29;20210;-74
2021/04/04 11:56:43;;;;;;;0.80;0.80;;;10.40;72.30;;;;;;4935417;29;20202;-73
2021/04/04 11:59:12;;;;;;;0.90;0.90;;;10.20;72.30;;;;;;4935702;29;20806;-73
2021/04/04 12:01:39;;;;;;;0.70;0.70;;;10.30;73.20;;;;;;4935571;29;20221;-73
2021/04/04 12:04:21;;;;;;;0.80;0.80;;;10.50;73.50;;;;;;4935560;29;20202;-74
2021/04/04 12:07:02;;;;;;;0.80;0.80;;;10.60;73.20;;;;;;4935464;29;20285;-74
2021/04/04 12:09:30;;;;;;;0.70;0.70;;;10.60;73.30;;;;;;4935800;29;20214;-74
2021/04/04 12:11:57;;;;;;;0.80;0.80;;;10.50;73.60;;;;;;4935315;29;20587;-74
2021/04/04 12:14:25;;;;;;;0.82;0.82;;;10.50;73.90;;;;;;4935314;29;20668;-73
2021/04/04 12:16:52;;;;;;;0.80;0.80;;;10.40;74.00;;;;;;4934870;29;20245;-74
2021/04/04 12:19:26;;;;;;;0.85;0.85;;;10.50;74.60;;;;;;4935425;29;20217;-73
2021/04/04 12:21:54;;;;;;;0.70;0.70;;;10.50;74.30;;;;;;4934794;29;20230;-73
2021/04/04 12:24:21;;;;;;;0.80;0.80;;;10.50;73.60;;;;;;4935025;29;20418;-73
2021/04/04 12:26:54;;;;;;;0.77;0.77;;;10.60;74.30;;;;;;4934569;29;20274;-73
2021/04/04 12:29:21;;;;;;;0.80;0.80;;;10.60;71.30;;;;;;4934977;29;20210;-74
2021/04/04 12:31:49;;;;;;;0.82;0.82;;;10.60;73.10;;;;;;4935882;29;20703;-74
2021/04/04 12:34:16;;;;;;;0.80;0.80;;;10.80;71.60;;;;;;4935399;29;20206;-74
2021/04/04 12:36:44;;;;;;;0.80;0.80;;;10.90;72.30;;;;;;4935260;29;20279;-74
2021/04/04 12:39:13;;;;;;;0.73;0.73;;;10.90;71.30;;;;;;4935359;29;20301;-74
2021/04/04 12:41:40;;;;;;;0.60;0.60;;;11.00;71.00;;;;;;4934031;29;20230;-74
2021/04/04 12:44:07;;;;;;;0.63;0.63;;;11.10;71.00;;;;;;4934505;29;20587;-74
2021/04/04 12:46:34;;;;;;;0.70;0.70;;;10.90;71.30;;;;;;4934491;29;20254;-74
2021/04/04 12:49:02;;;;;;;0.60;0.60;;;10.90;71.00;;;;;;4935050;29;20214;-74
2021/04/04 12:51:29;;;;;;;0.60;0.60;;;10.90;71.50;;;;;;4934595;29;20293;-74
2021/04/04 12:53:59;;;;;;;0.80;0.80;;;10.80;73.00;;;;;;4934763;29;20232;-74
2021/04/04 12:56:36;;;;;;;0.70;0.70;;;10.80;71.60;;;;;;4934254;29;20277;-74
2021/04/04 12:59:04;;;;;;;0.90;0.90;;;10.80;70.50;;;;;;4934737;29;20504;-74
2021/04/04 13:01:32;;;;;;;0.80;0.80;;;10.90;72.30;;;;;;4934468;29;20239;-74
2021/04/04 13:03:59;;;;;;;0.65;0.65;;;10.90;73.50;;;;;;4934442;29;20301;-74
2021/04/04 13:06:27;;;;;;;0.82;0.82;;;10.90;74.10;;;;;;4934035;29;20487;-74
2021/04/04 13:08:54;;;;;;;0.70;0.70;;;10.90;71.80;;;;;;4934310;29;20273;-74
2021/04/04 13:11:21;;;;;;;0.80;0.80;;;10.90;72.10;;;;;;4934014;29;20242;-75
2021/04/04 13:13:48;;;;;;;0.90;0.90;;;11.10;73.20;;;;;;4934417;29;20258;-74
2021/04/04 13:16:16;;;;;;;0.70;0.70;;;11.30;73.00;;;;;;4933818;29;20631;-74
2021/04/04 13:18:44;;;;;;;0.80;0.80;;;11.30;71.80;;;;;;4934578;29;20301;-74
2021/04/04 13:21:16;;;;;;;0.70;0.70;;;11.30;71.70;;;;;;4934353;29;20730;-74
2021/04/04 13:23:45;;;;;;;0.80;0.80;;;11.10;73.00;;;;;;4934135;29;20213;-74
2021/04/04 13:26:14;;;;;;;0.80;0.80;;;11.20;73.50;;;;;;4934039;29;20210;-74
2021/04/04 13:28:44;;;;;;;0.80;0.80;;;11.40;73.00;;;;;;4934267;29;20206;-74
2021/04/04 13:31:15;;;;;;;0.70;0.70;;;11.50;71.70;;;;;;4934118;29;20297;-75
2021/04/04 13:33:42;;;;;;;0.70;0.70;;;11.70;71.80;;;;;;4934034;29;20570;-74
2021/04/04 13:36:13;;;;;;;0.80;0.80;;;11.80;71.90;;;;;;4933720;29;20206;-74
2021/04/04 13:38:41;;;;;;;0.70;0.70;;;11.60;71.50;;;;;;4934177;29;20205;-74
2021/04/04 13:41:10;;;;;;;0.80;0.80;;;11.80;72.40;;;;;;4933985;29;20234;-74
2021/04/04 13:43:45;;;;;;;0.60;0.60;;;11.70;71.90;;;;;;4934008;29;20500;-74
2021/04/04 13:46:26;;;;;;;0.70;0.70;;;11.70;72.70;;;;;;4933796;29;20213;-74
2021/04/04 13:48:55;;;;;;;0.70;0.70;;;11.80;72.60;;;;;;4933929;29;20587;-74
2021/04/04 13:51:23;;;;;;;0.80;0.80;;;11.50;72.10;;;;;;4934034;29;20225;-74
2021/04/04 13:54:03;;;;;;;0.80;0.80;;;11.30;72.20;;;;;;4935810;29;20266;-74
2021/04/04 13:56:40;;;;;;;0.75;0.75;;;11.30;72.70;;;;;;4937529;29;20206;-74
2021/04/04 13:59:29;;;;;;;0.85;0.85;;;11.20;73.50;;;;;;4937948;29;20268;-74
2021/04/04 14:01:57;;;;;;;0.80;0.80;;;11.20;73.20;;;;;;4937541;29;20229;-74
2021/04/04 14:04:25;;;;;;;0.70;0.70;;;11.20;73.40;;;;;;4937547;29;20859;-74
2021/04/04 14:06:56;;;;;;;0.75;0.75;;;11.30;73.10;;;;;;4937167;29;20228;-74
2021/04/04 14:09:24;;;;;;;0.70;0.70;;;11.30;72.70;;;;;;4937391;29;20218;-75
2021/04/04 14:11:51;;;;;;;0.73;0.73;;;11.30;73.10;;;;;;4937121;29;20261;-74
2021/04/04 14:14:18;;;;;;;0.70;0.70;;;11.40;73.70;;;;;;4937286;29;20209;-74
2021/04/04 14:16:45;;;;;;;0.80;0.80;;;11.60;72.80;;;;;;4937200;29;20206;-73
2021/04/04 14:19:13;;;;;;;0.60;0.60;;;11.60;72.60;;;;;;4937211;29;20261;-74
2021/04/04 14:21:40;;;;;;;0.63;0.63;;;11.90;72.70;;;;;;4937124;29;20707;-74
2021/04/04 14:24:08;;;;;;;0.70;0.70;;;12.50;69.50;;;;;;4937344;29;20265;-76
2021/04/04 14:26:35;;;;;;;0.50;0.50;;;12.90;93.70;;;;;;4937007;29;20206;-74
2021/04/04 14:29:04;;;;;;;0.65;0.65;;;13.00;71.10;;;;;;4937256;29;20210;-74
2021/04/04 14:31:31;;;;;;;0.60;0.60;;;13.40;68.90;;;;;;4937394;29;20281;-74
2021/04/04 14:34:07;;;;;;;0.60;0.60;;;13.60;69.60;;;;;;4937238;29;20626;-74
2021/04/04 14:36:34;;;;;;;0.50;0.50;;;13.70;67.10;;;;;;4936991;29;20202;-75
2021/04/04 14:39:01;;;;;;;0.60;0.60;;;13.50;66.70;;;;;;4937248;29;20210;-74
2021/04/04 14:41:29;;;;;;;0.60;0.60;;;13.40;67.70;;;;;;4937109;29;20226;-74
2021/04/04 14:44:08;;;;;;;0.60;0.60;;;13.00;66.90;;;;;;4937160;29;20206;-74
2021/04/04 14:46:35;;;;;;;0.68;0.68;;;12.50;68.10;;;;;;4937255;29;20212;-74
2021/04/04 14:49:03;;;;;;;0.70;0.70;;;11.90;90.40;;;;;;4936614;29;20213;-74
2021/04/04 14:51:30;;;;;;;0.80;0.80;;;11.90;70.00;;;;;;4936971;29;20225;-74
2021/04/04 14:54:09;;;;;;;0.60;0.60;;;11.90;70.90;;;;;;4936653;29;20206;-74
2021/04/04 14:56:39;;;;;;;0.70;0.70;;;11.80;70.90;;;;;;4936565;29;20217;-74
2021/04/04 14:59:06;;;;;;;0.70;0.70;;;11.90;71.50;;;;;;4936617;29;20205;-74
2021/04/04 15:01:33;;;;;;;0.60;0.60;;;12.00;72.40;;;;;;4936692;29;20226;-73
2021/04/04 15:04:01;;;;;;;0.80;0.80;;;11.90;71.70;;;;;;4936560;29;20742;-73
2021/04/04 15:06:28;;;;;;;0.70;0.70;;;11.80;72.90;;;;;;4935757;29;20206;-73
2021/04/04 15:08:55;;;;;;;0.70;0.70;;;11.60;73.10;;;;;;4936401;29;20257;-74
2021/04/04 15:11:22;;;;;;;0.70;0.70;;;11.80;73.10;;;;;;4936327;29;20300;-74
2021/04/04 15:13:49;;;;;;;0.70;0.70;;;11.80;73.40;;;;;;4936159;29;20202;-74
2021/04/04 15:16:16;;;;;;;0.70;0.70;;;11.90;72.50;;;;;;4935961;29;20216;-74
2021/04/04 15:18:42;;;;;;;0.77;0.77;;;12.10;72.30;;;;;;4936322;29;20276;-74
2021/04/04 15:21:12;;;;;;;0.73;0.73;;;12.30;72.20;;;;;;4936405;29;20644;-73
2021/04/04 15:23:38;;;;;;;0.50;0.50;;;12.40;70.00;;;;;;4936425;29;20210;-73
2021/04/04 15:26:05;;;;;;;0.80;0.80;;;12.40;70.80;;;;;;4935858;29;20214;-74
2021/04/04 15:28:32;;;;;;;0.50;0.50;;;12.70;68.90;;;;;;4935921;29;20241;-74
2021/04/04 15:31:01;;;;;;;0.75;0.75;;;12.60;68.60;;;;;;4936293;29;20237;-74
2021/04/04 15:33:27;;;;;;;0.75;0.75;;;12.60;68.50;;;;;;4935969;29;20686;-73
2021/04/04 15:35:56;;;;;;;0.70;0.70;;;12.60;68.90;;;;;;4935760;29;20727;-74
2021/04/04 15:38:25;;;;;;;0.73;0.73;;;12.60;68.50;;;;;;4935815;29;20202;-74
2021/04/04 15:40:54;;;;;;;0.70;0.70;;;12.80;68.60;;;;;;4935784;29;20237;-74
2021/04/04 15:43:22;;;;;;;0.60;0.60;;;12.90;68.10;;;;;;4935931;29;20214;-74
2021/04/04 15:45:49;;;;;;;0.63;0.63;;;12.90;69.20;;;;;;4935629;29;20210;-73
2021/04/04 15:48:19;;;;;;;0.70;0.70;;;12.60;69.40;;;;;;4936198;29;20864;-74
2021/04/04 15:51:06;;;;;;;0.70;0.70;;;12.30;70.60;;;;;;4935523;29;20236;-73
2021/04/04 15:53:34;;;;;;;0.70;0.70;;;12.50;70.50;;;;;;4935593;29;20277;-73
2021/04/04 15:56:02;;;;;;;0.70;0.70;;;12.50;70.80;;;;;;4935914;29;20579;-74
2021/04/04 15:58:29;;;;;;;0.60;0.60;;;12.30;71.20;;;;;;4935827;29;20198;-74
2021/04/04 16:00:57;;;;;;;0.70;0.70;;;12.20;71.50;;;;;;4935542;29;20228;-73
2021/04/04 16:03:23;;;;;;;0.65;0.65;;;12.30;71.20;;;;;;4935692;29;20206;-74
2021/04/04 16:05:50;;;;;;;0.70;0.70;;;12.40;70.80;;;;;;4935164;29;20228;-73
2021/04/04 16:08:17;;;;;;;0.60;0.60;;;12.30;70.70;;;;;;4934941;29;20312;-73
2021/04/04 16:10:48;;;;;;;0.55;0.55;;;12.30;71.30;;;;;;4935526;29;20234;-73
2021/04/04 16:13:15;;;;;;;0.70;0.70;;;12.40;71.10;;;;;;4935277;29;20308;-73
2021/04/04 16:15:44;;;;;;;0.77;0.77;;;12.40;70.80;;;;;;4934984;29;20220;-73
2021/04/04 16:18:12;;;;;;;0.60;0.60;;;12.60;70.30;;;;;;4934983;29;20443;-73
2021/04/04 16:20:40;;;;;;;0.60;0.60;;;12.60;70.40;;;;;;4934880;29;20225;-73
2021/04/04 16:23:27;;;;;;;0.70;0.70;;;12.50;69.80;;;;;;4934920;29;20657;-73
2021/04/04 16:25:55;;;;;;;0.60;0.60;;;12.50;68.90;;;;;;4935175;29;20625;-75
2021/04/04 16:28:22;;;;;;;0.70;0.70;;;12.70;69.30;;;;;;4934812;29;20707;-74
2021/04/04 16:30:49;;;;;;;0.70;0.70;;;12.60;69.30;;;;;;4935051;29;20226;-74
2021/04/04 16:33:16;;;;;;;0.80;0.80;;;12.60;69.80;;;;;;4934815;29;20210;-76
2021/04/04 16:35:43;;;;;;;0.60;0.60;;;12.60;70.10;;;;;;4934748;29;20212;-76
2021/04/04 16:38:10;;;;;;;0.50;0.50;;;12.80;70.50;;;;;;4935041;29;20202;-76
2021/04/04 16:40:37;;;;;;;0.50;0.50;;;13.00;70.20;;;;;;4934714;29;20222;-75
2021/04/04 16:43:06;;;;;;;0.60;0.60;;;12.70;72.60;;;;;;4934851;29;20209;-76
2021/04/04 16:45:34;;;;;;;0.60;0.60;;;12.70;70.20;;;;;;4934445;29;20206;-75
2021/04/04 16:48:02;;;;;;;0.52;0.52;;;12.80;70.50;;;;;;4934544;29;20301;-76
2021/04/04 16:50:29;;;;;;;0.70;0.70;;;12.80;90.90;;;;;;4934691;29;20206;-75
2021/04/04 16:52:57;;;;;;;0.60;0.60;;;12.80;71.50;;;;;;4934796;29;20212;-75
2021/04/04 16:55:25;;;;;;;0.60;0.60;;;12.90;71.10;;;;;;4934407;29;20257;-76
2021/04/04 16:57:54;;;;;;;0.55;0.55;;;12.50;71.80;;;;;;4934382;29;20206;-75
2021/04/04 17:00:22;;;;;;;0.70;0.70;;;12.00;91.70;;;;;;4934274;29;20260;-76
2021/04/04 17:02:50;;;;;;;0.70;0.70;;;12.10;73.60;;;;;;4934663;29;20449;-74
2021/04/04 17:05:20;;;;;;;0.70;0.70;;;12.10;74.30;;;;;;4934103;29;20265;-75
2021/04/04 17:07:47;;;;;;;0.70;0.70;;;12.00;75.10;;;;;;4934429;29;20482;-76
2021/04/04 17:10:15;;;;;;;0.77;0.77;;;11.90;92.70;;;;;;4934520;29;20276;-76
2021/04/04 17:12:43;;;;;;;0.68;0.68;;;11.80;76.40;;;;;;4934580;29;20613;-76
2021/04/04 17:15:13;;;;;;;0.70;0.70;;;11.70;76.30;;;;;;4934352;29;20296;-76
2021/04/04 17:17:41;;;;;;;0.60;0.60;;;11.60;76.90;;;;;;4934236;29;20213;-76
2021/04/04 17:20:10;;;;;;;0.60;0.60;;;11.60;77.30;;;;;;4934344;29;20206;-76
2021/04/04 17:22:37;;;;;;;0.70;0.70;;;11.50;78.10;;;;;;4934281;29;20234;-77
2021/04/04 17:25:06;;;;;;;0.68;0.68;;;11.40;78.00;;;;;;4934288;29;20202;-76